Time;durP1;ratioP1;P1;durP2;ratioP2;P2;SDS_P1;SDS_P2;PMS_P1;PMS_P2;Temp;Humidity;BMP_temperature;BMP_pressure;BME280_temperature;BME280_humidity;BME280_pressure;Samples;Min_cycle;Max_cycle;Signal;HPM_P1;HPM_P2
2021/01/20 00:01:45;;;;;;;4.33;2.80;;;;;;;3.02;82.88;99810.73;615090;226;33046;-74
2021/01/20 00:04:16;;;;;;;3.90;2.92;;;;;;;3.04;82.28;99799.89;632689;223;32971;-75
2021/01/20 00:06:49;;;;;;;3.10;2.63;;;;;;;2.81;83.40;99797.16;637979;224;23713;-75
2021/01/20 00:09:20;;;;;;;3.57;2.50;;;;;;;2.71;84.27;99802.59;646337;217;25478;-74
2021/01/20 00:11:50;;;;;;;4.40;2.70;;;;;;;2.73;84.08;99810.19;616582;229;24886;-75
2021/01/20 00:14:21;;;;;;;3.50;2.67;;;;;;;2.83;83.81;99801.75;633132;225;25016;-75
2021/01/20 00:16:51;;;;;;;3.50;2.85;;;;;;;3.21;81.94;99791.81;630270;226;33236;-76
2021/01/20 00:19:21;;;;;;;3.80;3.13;;;;;;;2.89;82.92;99787.19;623812;229;24850;-75
2021/01/20 00:21:52;;;;;;;5.07;3.13;;;;;;;2.76;83.40;99791.53;625724;226;24857;-77
2021/01/20 00:24:22;;;;;;;3.95;2.70;;;;;;;3.23;82.18;99789.48;616331;229;33008;-75
2021/01/20 00:26:52;;;;;;;3.50;2.90;;;;;;;2.89;82.70;99781.23;634930;225;23684;-75
2021/01/20 00:29:27;;;;;;;3.00;2.67;;;;;;;2.78;83.23;99774.73;648901;221;24810;-75
2021/01/20 00:31:57;;;;;;;4.87;3.00;;;;;;;2.71;83.78;99775.64;649544;217;24860;-74
2021/01/20 00:34:27;;;;;;;4.57;2.77;;;;;;;2.60;83.52;99772.98;647899;221;25982;-75
2021/01/20 00:36:57;;;;;;;4.85;3.05;;;;;;;3.06;82.99;99768.48;619240;226;33023;-75
2021/01/20 00:39:28;;;;;;;4.10;3.10;;;;;;;2.61;83.58;99765.64;624572;230;23728;-74
2021/01/20 00:41:58;;;;;;;4.57;3.47;;;;;;;2.38;84.60;99773.61;627259;225;24874;-75
2021/01/20 00:44:29;;;;;;;3.80;2.63;;;;;;;2.44;84.96;99774.50;621486;229;24933;-76
2021/01/20 00:46:59;;;;;;;4.13;3.10;;;;;;;2.32;85.38;99772.76;632062;225;24855;-75
2021/01/20 00:49:33;;;;;;;5.80;3.07;;;;;;;2.29;85.80;99771.23;617377;229;24922;-74
2021/01/20 00:52:01;;;;;;;3.80;2.70;;;;;;;2.30;85.66;99771.58;620705;225;24865;-74
2021/01/20 00:54:33;;;;;;;3.40;3.00;;;;;;;2.22;85.80;99766.59;626323;226;24941;-74
2021/01/20 00:57:03;;;;;;;3.80;3.10;;;;;;;2.30;85.75;99769.48;627313;225;24901;-74
2021/01/20 00:59:33;;;;;;;3.70;2.73;;;;;;;2.51;85.24;99765.44;617889;229;24879;-74
2021/01/20 01:02:05;;;;;;;5.80;3.30;;;;;;;2.47;85.20;99760.62;625653;225;24888;-74
2021/01/20 01:04:38;;;;;;;4.35;3.10;;;;;;;2.93;83.54;99755.22;615246;229;32995;-74
2021/01/20 01:07:09;;;;;;;4.93;2.97;;;;;;;2.53;84.61;99742.23;627879;226;23817;-74
2021/01/20 01:09:39;;;;;;;4.20;2.90;;;;;;;3.05;83.21;99737.31;621500;226;35496;-74
2021/01/20 01:12:10;;;;;;;3.15;2.85;;;;;;;3.11;82.10;99730.47;613347;230;32990;-74
2021/01/20 01:14:40;;;;;;;4.03;2.80;;;;;;;2.64;83.63;99738.00;619793;228;23884;-78
2021/01/20 01:17:10;;;;;;;3.53;3.00;;;;;;;2.61;83.92;99737.41;622094;227;27093;-74
2021/01/20 01:19:41;;;;;;;5.93;3.10;;;;;;;2.35;84.79;99750.73;617503;229;24901;-74
2021/01/20 01:22:10;;;;;;;4.90;3.00;;;;;;;2.52;84.41;99741.87;619061;225;24884;-74
2021/01/20 01:24:41;;;;;;;4.03;3.20;;;;;;;2.80;83.46;99733.08;629070;226;32944;-75
2021/01/20 01:27:10;;;;;;;4.90;3.40;;;;;;;2.60;83.76;99739.61;629392;226;23885;-74
2021/01/20 01:29:40;;;;;;;5.67;3.17;;;;;;;2.36;84.19;99744.22;621390;229;24879;-74
2021/01/20 01:32:14;;;;;;;3.43;3.13;;;;;;;2.47;84.70;99749.91;614530;229;24872;-75
2021/01/20 01:34:47;;;;;;;4.57;2.90;;;;;;;2.40;84.49;99747.88;623304;230;24922;-74
2021/01/20 01:37:18;;;;;;;4.77;3.23;;;;;;;2.30;85.33;99753.62;629286;225;24855;-74
2021/01/20 01:39:48;;;;;;;3.50;2.50;;;;;;;2.54;84.89;99749.03;620715;230;24917;-75
2021/01/20 01:42:30;;;;;;;3.80;2.50;;;;;;;2.35;85.21;99755.41;622897;229;24896;-74
2021/01/20 01:45:02;;;;;;;5.63;2.87;;;;;;;2.17;86.19;99759.69;620403;229;24956;-74
2021/01/20 01:47:33;;;;;;;2.83;2.40;;;;;;;2.13;86.74;99759.08;620755;229;24875;-74
2021/01/20 01:50:03;;;;;;;5.40;3.50;;;;;;;2.24;86.46;99750.17;619895;227;24921;-74
2021/01/20 01:52:35;;;;;;;5.40;3.20;;;;;;;2.16;86.35;99748.60;635199;223;24826;-74
2021/01/20 01:55:12;;;;;;;4.80;3.77;;;;;;;2.63;85.72;99742.78;618939;229;33266;-74
2021/01/20 01:57:43;;;;;;;3.70;3.02;;;;;;;2.89;84.45;99733.73;620754;225;33447;-74
2021/01/20 02:00:15;;;;;;;4.22;3.22;;;;;;;2.97;83.83;99729.70;619803;229;33302;-75
2021/01/20 02:02:46;;;;;;;4.43;3.37;;;;;;;2.28;85.20;99734.13;630606;225;23722;-74
2021/01/20 02:05:20;;;;;;;4.90;2.70;;;;;;;2.14;86.43;99740.20;633964;225;24849;-74
2021/01/20 02:07:50;;;;;;;4.67;2.87;;;;;;;2.09;86.57;99743.05;635850;225;24809;-74
2021/01/20 02:10:20;;;;;;;4.50;3.00;;;;;;;2.27;86.40;99746.14;633595;226;24850;-74
2021/01/20 02:13:17;;;;;;;3.27;2.83;;;;;;;2.27;86.57;99738.45;620888;229;24947;-74
2021/01/20 02:15:48;;;;;;;4.30;2.97;;;;;;;2.24;86.24;99730.94;619221;230;24878;-74
2021/01/20 02:18:21;;;;;;;4.57;3.70;;;;;;;2.16;86.35;99720.39;627758;225;24884;-74
2021/01/20 02:21:06;;;;;;;4.87;3.37;;;;;;;2.31;86.64;99729.61;624210;226;24874;-77
2021/01/20 02:23:40;;;;;;;3.60;3.10;;;;;;;2.05;87.09;99721.57;616524;226;24975;-74
2021/01/20 02:26:14;;;;;;;5.72;3.40;;;;;;;2.17;86.76;99722.49;617175;228;33064;-75
2021/01/20 02:28:47;;;;;;;4.72;3.00;;;;;;;2.35;86.09;99718.66;623962;225;33216;-74
2021/01/20 02:31:16;;;;;;;3.40;2.90;;;;;;;2.24;87.18;99719.85;632801;221;33324;-74
2021/01/20 02:33:49;;;;;;;3.20;2.90;;;;;;;2.04;87.97;99734.03;627534;229;23736;-74
2021/01/20 02:36:20;;;;;;;4.78;3.50;;;;;;;2.45;86.95;99726.09;641910;221;32936;-74
2021/01/20 02:38:52;;;;;;;3.92;3.10;;;;;;;2.78;85.71;99711.37;640277;221;32776;-74
2021/01/20 02:41:24;;;;;;;4.40;3.17;;;;;;;2.23;86.53;99711.34;622695;229;23787;-75
2021/01/20 02:46:32;;;;;;;4.30;3.27;;;;;;;2.21;87.06;99714.94;651884;208;24538;-77
2021/01/20 02:49:03;;;;;;;3.83;3.13;;;;;;;2.16;87.51;99710.59;638320;224;26295;-74
2021/01/20 02:51:36;;;;;;;5.30;3.02;;;;;;;2.60;86.26;99706.25;640642;221;32712;-74
2021/01/20 02:54:06;;;;;;;3.80;3.30;;;;;;;2.35;86.91;99701.98;636769;221;23679;-74
2021/01/20 02:56:35;;;;;;;3.95;2.90;;;;;;;2.85;85.17;99697.18;634399;221;33024;-75
2021/01/20 02:59:07;;;;;;;5.40;3.20;;;;;;;2.46;86.55;99697.41;643198;221;24735;-75
2021/01/20 03:01:36;;;;;;;3.60;2.97;;;;;;;2.37;86.77;99693.72;648699;219;24898;-75
2021/01/20 03:04:07;;;;;;;4.30;2.87;;;;;;;2.95;85.04;99694.29;639450;219;32806;-74
2021/01/20 03:06:38;;;;;;;4.12;2.80;;;;;;;3.00;83.85;99679.86;641068;218;32806;-74
2021/01/20 03:09:09;;;;;;;5.00;3.20;;;;;;;3.05;83.63;99675.66;644823;218;32517;-75
2021/01/20 03:11:49;;;;;;;3.97;2.70;;;;;;;2.88;84.72;99675.59;653171;218;23652;-75
2021/01/20 03:14:20;;;;;;;3.40;2.40;;;;;;;2.70;85.69;99675.63;654968;218;24815;-74
2021/01/20 03:16:53;;;;;;;4.13;2.83;;;;;;;2.54;86.23;99679.27;637661;221;24810;-75
2021/01/20 03:19:26;;;;;;;3.07;2.57;;;;;;;2.37;86.83;99682.17;650411;217;24823;-75
2021/01/20 03:22:00;;;;;;;3.80;3.10;;;;;;;2.61;86.38;99677.91;641854;221;31302;-74
2021/01/20 03:24:29;;;;;;;3.47;2.70;;;;;;;2.50;86.56;99670.59;643706;218;24871;-74
2021/01/20 03:26:59;;;;;;;2.63;2.27;;;;;;;2.58;86.72;99672.17;639432;222;24825;-74
2021/01/20 03:29:28;;;;;;;4.57;2.73;;;;;;;3.04;85.08;99656.05;629531;222;32789;-74
2021/01/20 03:32:02;;;;;;;2.90;2.60;;;;;;;3.25;84.86;99646.33;630816;222;33940;-74
2021/01/20 03:34:36;;;;;;;3.50;2.60;;;;;;;3.15;84.58;99642.78;646827;217;32573;-75
2021/01/20 03:37:06;;;;;;;2.90;2.60;;;;;;;2.72;85.87;99648.91;639133;221;23683;-75
2021/01/20 03:39:37;;;;;;;2.93;2.57;;;;;;;2.73;86.59;99655.69;640181;222;24786;-75
2021/01/20 03:42:07;;;;;;;2.60;2.07;;;;;;;2.71;86.82;99655.44;639265;221;26195;-75
2021/01/20 03:44:39;;;;;;;3.57;2.67;;;;;;;2.83;86.33;99648.97;640455;222;24791;-75
2021/01/20 03:47:12;;;;;;;2.73;2.43;;;;;;;2.74;86.48;99638.06;649581;217;24729;-74
2021/01/20 03:49:43;;;;;;;3.30;2.33;;;;;;;2.79;86.76;99644.14;637708;222;24810;-74
2021/01/20 03:52:14;;;;;;;3.70;2.90;;;;;;;2.80;86.16;99627.34;657339;217;24809;-77
2021/01/20 03:54:44;;;;;;;3.30;2.40;;;;;;;2.81;86.14;99628.98;637407;222;25094;-74
2021/01/20 03:57:15;;;;;;;3.20;2.50;;;;;;;3.10;85.48;99616.62;636804;221;32677;-75
2021/01/20 03:59:45;;;;;;;2.80;2.50;;;;;;;2.85;85.53;99620.61;646608;221;23673;-76
2021/01/20 04:02:16;;;;;;;3.60;2.63;;;;;;;2.82;85.67;99626.80;641869;221;24859;-74
2021/01/20 04:04:46;;;;;;;5.13;2.73;;;;;;;2.88;85.92;99630.19;643874;221;24794;-74
2021/01/20 04:07:17;;;;;;;2.50;2.30;;;;;;;2.69;85.81;99620.90;657251;218;24768;-74
2021/01/20 04:09:46;;;;;;;4.87;2.27;;;;;;;2.75;86.34;99624.77;642059;221;24853;-75
2021/01/20 04:12:17;;;;;;;2.72;2.42;;;;;;;3.13;85.24;99619.42;639357;220;33168;-74
2021/01/20 04:14:47;;;;;;;3.53;2.77;;;;;;;2.71;85.79;99620.32;644559;221;23665;-74
2021/01/20 04:17:17;;;;;;;2.87;2.57;;;;;;;2.64;86.17;99618.64;657408;217;24795;-75
2021/01/20 04:19:48;;;;;;;4.10;2.97;;;;;;;2.66;86.30;99623.66;645931;220;24831;-75
2021/01/20 04:22:18;;;;;;;3.80;2.97;;;;;;;2.75;86.59;99619.63;637129;221;27959;-74
2021/01/20 04:24:49;;;;;;;3.20;2.53;;;;;;;2.58;86.80;99625.51;647386;221;24831;-75
2021/01/20 04:27:26;;;;;;;3.20;2.23;;;;;;;2.82;86.53;99622.95;640325;221;26023;-75
2021/01/20 04:29:57;;;;;;;2.80;2.40;;;;;;;3.18;85.07;99606.58;638741;221;32654;-74
2021/01/20 04:32:27;;;;;;;3.90;2.70;;;;;;;2.92;86.03;99607.20;644201;221;23658;-74
2021/01/20 04:35:00;;;;;;;2.37;2.13;;;;;;;2.85;86.40;99612.91;639032;222;24806;-74
2021/01/20 04:37:30;;;;;;;5.20;2.40;;;;;;;3.13;84.99;99592.45;633094;222;32720;-75
2021/01/20 04:40:01;;;;;;;2.70;2.30;;;;;;;3.06;85.57;99601.06;644917;219;23917;-74
2021/01/20 04:42:35;;;;;;;2.77;2.17;;;;;;;3.32;84.92;99589.33;642963;217;32544;-75
2021/01/20 04:45:07;;;;;;;3.47;2.10;;;;;;;3.02;85.23;99586.00;643985;222;23715;-74
2021/01/20 04:47:38;;;;;;;4.12;2.25;;;;;;;3.34;84.66;99580.56;645923;217;32586;-75
2021/01/20 04:50:09;;;;;;;3.00;2.20;;;;;;;3.21;84.55;99579.84;643608;222;23679;-77
2021/01/20 04:52:37;;;;;;;3.00;2.50;;;;;;;3.16;84.86;99576.80;653906;217;24763;-74
2021/01/20 04:55:11;;;;;;;2.27;2.00;;;;;;;3.41;84.00;99585.61;638308;222;24802;-76
2021/01/20 04:57:42;;;;;;;7.20;3.10;;;;;;;3.38;84.12;99581.14;654639;217;24763;-74
2021/01/20 05:00:13;;;;;;;30.57;14.07;;;;;;;3.40;84.21;99573.70;642780;221;24757;-74
2021/01/20 05:02:44;;;;;;;78.33;33.13;;;;;;;3.37;83.88;99571.33;642277;222;24800;-75
2021/01/20 05:05:17;;;;;;;5.67;4.27;;;;;;;3.32;84.04;99576.01;642866;221;24790;-74
2021/01/20 05:07:48;;;;;;;6.90;3.07;;;;;;;3.35;84.13;99573.20;638354;221;24769;-74
2021/01/20 05:10:19;;;;;;;4.30;3.47;;;;;;;3.51;83.76;99569.83;651054;217;25895;-74
2021/01/20 05:12:49;;;;;;;3.03;2.57;;;;;;;3.44;83.07;99566.56;650948;217;24759;-74
2021/01/20 05:15:18;;;;;;;4.20;2.67;;;;;;;3.48;83.03;99566.20;638741;221;24841;-74
2021/01/20 05:17:58;;;;;;;2.40;2.20;;;;;;;3.57;82.77;99561.66;640225;221;24858;-75
2021/01/20 05:20:30;;;;;;;3.43;1.90;;;;;;;3.60;82.19;99558.51;642543;221;24789;-74
2021/01/20 05:25:40;;;;;;;2.40;1.73;;;;;;;3.81;81.44;99549.98;645906;217;32393;-78
2021/01/20 05:28:18;;;;;;;2.40;1.97;;;;;;;3.80;81.59;99554.77;651306;220;24799;-79
2021/01/20 05:30:48;;;;;;;2.20;1.97;;;;;;;3.82;81.10;99553.36;650618;219;24736;-80
2021/01/20 05:33:17;;;;;;;2.60;2.07;;;;;;;3.79;81.25;99548.44;641251;219;24854;-79
2021/01/20 05:35:45;;;;;;;1.90;1.80;;;;;;;3.81;81.06;99558.16;641137;223;24810;-80
2021/01/20 05:38:14;;;;;;;2.73;2.23;;;;;;;3.85;80.71;99555.69;641135;224;28009;-79
2021/01/20 05:40:42;;;;;;;2.57;1.90;;;;;;;3.94;80.83;99545.14;624696;230;24845;-79
2021/01/20 05:43:10;;;;;;;1.93;1.60;;;;;;;3.88;80.19;99542.59;629452;224;24840;-79
2021/01/20 05:45:46;;;;;;;2.10;2.00;;;;;;;3.92;80.60;99541.88;628386;228;24812;-79
2021/01/20 05:48:14;;;;;;;2.53;1.77;;;;;;;3.99;80.36;99537.44;622780;229;24864;-79
2021/01/20 05:50:55;;;;;;;2.90;2.10;;;;;;;4.09;80.62;99546.55;628451;228;24818;-80
2021/01/20 05:53:23;;;;;;;2.10;1.70;;;;;;;4.09;80.11;99535.78;639551;224;26005;-80
2021/01/20 05:56:01;;;;;;;1.97;1.80;;;;;;;4.08;79.99;99541.87;639596;224;24838;-80
2021/01/20 05:58:39;;;;;;;2.13;1.80;;;;;;;3.90;79.73;99545.86;639659;224;24840;-78
2021/01/20 06:01:08;;;;;;;4.03;2.17;;;;;;;3.86;80.28;99546.57;638430;224;24845;-79
2021/01/20 06:03:36;;;;;;;2.17;1.97;;;;;;;3.85;80.40;99555.23;639834;224;24791;-80
2021/01/20 06:06:04;;;;;;;2.13;1.93;;;;;;;3.97;80.55;99556.03;640383;224;24788;-79
2021/01/20 06:08:33;;;;;;;2.00;1.70;;;;;;;3.86;80.86;99554.28;638979;224;24823;-80
2021/01/20 06:11:01;;;;;;;1.80;1.70;;;;;;;3.86;80.64;99557.33;626165;226;24803;-79
2021/01/20 06:13:29;;;;;;;3.70;2.40;;;;;;;3.86;80.70;99549.14;636987;225;24869;-79
2021/01/20 06:15:58;;;;;;;2.30;1.80;;;;;;;4.26;79.56;99545.21;629415;225;43892;-80
2021/01/20 06:18:26;;;;;;;2.60;2.40;;;;;;;3.93;80.21;99536.61;635011;225;23701;-80
2021/01/20 06:20:55;;;;;;;3.80;2.10;;;;;;;3.99;80.45;99541.77;627793;228;24839;-81
2021/01/20 06:23:24;;;;;;;2.60;2.30;;;;;;;3.98;80.04;99542.23;638192;225;25097;-81
2021/01/20 06:25:57;;;;;;;2.03;1.70;;;;;;;3.84;80.54;99546.34;627880;228;24875;-80
2021/01/20 06:28:25;;;;;;;2.97;2.40;;;;;;;3.95;79.92;99537.80;641669;223;24797;-79
2021/01/20 06:30:53;;;;;;;3.90;2.43;;;;;;;3.86;80.46;99539.32;625629;229;24798;-79
2021/01/20 06:33:22;;;;;;;5.23;2.50;;;;;;;3.86;80.38;99535.47;639105;224;24897;-79
2021/01/20 06:35:50;;;;;;;3.00;2.30;;;;;;;3.87;80.55;99538.38;638234;223;24848;-78
2021/01/20 06:38:32;;;;;;;3.20;2.13;;;;;;;3.94;80.20;99533.12;641071;224;24813;-79
2021/01/20 06:41:01;;;;;;;2.50;2.30;;;;;;;3.93;80.58;99534.50;627027;225;27062;-79
2021/01/20 06:43:35;;;;;;;3.77;2.23;;;;;;;3.98;80.37;99529.37;629473;228;24856;-79
2021/01/20 06:46:23;;;;;;;4.40;2.60;;;;;;;4.06;79.59;99528.28;627842;228;24946;-79
2021/01/20 06:49:15;;;;;;;5.60;2.90;;;;;;;4.07;79.82;99529.09;626943;227;28986;-79
2021/01/20 06:51:43;;;;;;;5.53;3.33;;;;;;;4.08;79.26;99525.14;641063;220;24827;-79
2021/01/20 06:54:14;;;;;;;5.73;3.50;;;;;;;4.10;79.66;99526.31;631865;225;24745;-79
2021/01/20 06:56:44;;;;;;;4.40;2.80;;;;;;;3.96;79.31;99520.95;629309;228;24796;-78
2021/01/20 06:59:19;;;;;;;4.40;3.07;;;;;;;4.05;78.97;99525.83;628203;227;24828;-79
2021/01/20 07:02:09;;;;;;;2.20;2.00;;;;;;;3.94;79.01;99525.84;628449;228;24824;-79
2021/01/20 07:04:57;;;;;;;3.17;2.33;;;;;;;3.88;79.47;99524.11;625282;227;24849;-79
2021/01/20 07:07:49;;;;;;;2.33;2.13;;;;;;;3.83;79.77;99524.95;637274;223;24910;-79
2021/01/20 07:10:17;;;;;;;2.80;2.40;;;;;;;3.89;79.69;99524.94;629208;225;32938;-79
2021/01/20 07:13:17;;;;;;;3.70;2.50;;;;;;;4.01;78.95;99515.44;629675;224;32831;-79
2021/01/20 07:15:46;;;;;;;2.37;2.13;;;;;;;3.85;79.62;99519.69;625226;225;23794;-79
2021/01/20 07:18:14;;;;;;;2.17;1.97;;;;;;;3.84;79.38;99516.77;634854;225;24843;-79
2021/01/20 07:20:43;;;;;;;3.20;2.10;;;;;;;3.86;79.17;99516.98;639917;224;24921;-79
2021/01/20 07:23:11;;;;;;;2.63;2.20;;;;;;;3.98;78.85;99513.94;626105;226;24789;-79
2021/01/20 07:25:39;;;;;;;2.30;2.10;;;;;;;4.08;78.78;99512.28;638832;219;24765;-79
2021/01/20 07:28:07;;;;;;;1.87;1.77;;;;;;;4.12;79.04;99514.95;625948;229;25528;-79
2021/01/20 07:30:35;;;;;;;2.22;1.98;;;;;;;4.47;77.83;99502.29;620579;227;32741;-79
2021/01/20 07:33:14;;;;;;;2.77;2.33;;;;;;;4.36;77.67;99491.59;625774;226;23680;-79
2021/01/20 07:35:42;;;;;;;3.70;2.20;;;;;;;4.31;77.83;99492.42;638504;224;24917;-79
2021/01/20 07:38:10;;;;;;;2.47;2.27;;;;;;;4.34;77.95;99490.06;627076;229;24806;-79
2021/01/20 07:40:38;;;;;;;3.83;2.63;;;;;;;4.46;77.62;99483.92;638106;225;24761;-79
2021/01/20 07:43:06;;;;;;;2.53;2.33;;;;;;;4.43;77.58;99481.61;625223;228;24895;-79
2021/01/20 07:45:36;;;;;;;3.43;2.70;;;;;;;4.47;77.46;99476.55;628353;228;24863;-79
2021/01/20 07:48:06;;;;;;;2.30;1.97;;;;;;;4.46;76.99;99478.78;627534;227;24822;-79
2021/01/20 07:50:37;;;;;;;2.40;2.20;;;;;;;4.46;77.04;99470.58;637102;224;24777;-79
2021/01/20 07:53:06;;;;;;;2.30;1.83;;;;;;;4.39;77.54;99466.89;624139;229;24803;-79
2021/01/20 07:55:34;;;;;;;2.67;2.13;;;;;;;4.52;77.22;99470.58;639685;224;25187;-79
2021/01/20 07:58:02;;;;;;;3.13;2.43;;;;;;;4.56;76.17;99465.98;638506;223;24808;-79
2021/01/20 08:00:30;;;;;;;2.97;2.60;;;;;;;4.61;77.01;99462.08;627553;229;24849;-79
2021/01/20 08:03:00;;;;;;;3.00;2.60;;;;;;;4.42;77.42;99461.95;626911;228;24917;-79
2021/01/20 08:05:32;;;;;;;6.37;3.43;;;;;;;4.48;77.38;99467.88;625506;229;24803;-79
2021/01/20 08:08:06;;;;;;;4.07;3.17;;;;;;;4.68;77.08;99470.95;628212;228;24863;-79
2021/01/20 08:10:34;;;;;;;3.43;2.33;;;;;;;4.52;76.94;99470.58;627568;228;24902;-79
2021/01/20 08:13:02;;;;;;;2.53;2.33;;;;;;;4.64;77.16;99468.26;640853;223;24799;-79
2021/01/20 08:15:32;;;;;;;3.37;2.77;;;;;;;4.64;76.54;99469.55;626609;229;24857;-79
2021/01/20 08:18:00;;;;;;;2.92;2.62;;;;;;;4.89;76.12;99467.53;630502;225;32911;-79
2021/01/20 08:20:33;;;;;;;2.30;2.10;;;;;;;5.15;75.37;99466.17;621657;229;32696;-79
2021/01/20 08:23:01;;;;;;;4.92;2.60;;;;;;;5.02;75.20;99459.94;634624;223;32871;-79
2021/01/20 08:25:29;;;;;;;3.27;2.60;;;;;;;5.02;75.35;99462.99;634303;224;32711;-80
2021/01/20 08:27:57;;;;;;;3.00;2.20;;;;;;;5.02;75.51;99459.13;635397;224;32747;-79
2021/01/20 08:30:30;;;;;;;4.70;2.53;;;;;;;4.91;76.33;99460.48;639671;224;23729;-79
2021/01/20 08:32:58;;;;;;;2.62;2.25;;;;;;;5.28;75.73;99459.04;634650;220;32670;-78
2021/01/20 08:35:28;;;;;;;3.23;2.53;;;;;;;4.93;76.36;99465.06;639030;224;24827;-79
2021/01/20 08:37:56;;;;;;;4.07;2.60;;;;;;;4.83;75.99;99466.30;639010;224;25994;-79
2021/01/20 08:40:24;;;;;;;3.10;2.50;;;;;;;5.25;75.71;99472.20;620702;229;32735;-79
2021/01/20 08:42:52;;;;;;;3.63;2.60;;;;;;;5.08;75.89;99469.41;626066;226;24854;-79
2021/01/20 08:45:31;;;;;;;3.80;2.30;;;;;;;5.04;76.14;99471.41;637388;224;30530;-79
2021/01/20 08:47:59;;;;;;;3.40;2.60;;;;;;;4.90;76.49;99472.55;626080;229;24843;-79
2021/01/20 08:50:34;;;;;;;4.00;2.45;;;;;;;5.42;75.75;99465.60;622905;228;32837;-79
2021/01/20 08:53:02;;;;;;;2.37;2.17;;;;;;;5.08;76.57;99468.94;641516;220;23715;-79
2021/01/20 08:55:30;;;;;;;2.83;2.33;;;;;;;5.03;76.23;99469.77;623794;229;24852;-79
2021/01/20 08:58:09;;;;;;;3.00;2.37;;;;;;;4.92;77.06;99464.69;636544;225;24849;-79
2021/01/20 09:00:41;;;;;;;3.27;2.57;;;;;;;4.89;76.56;99462.38;637253;225;24872;-80
2021/01/20 09:03:14;;;;;;;6.23;2.80;;;;;;;4.93;76.64;99453.47;635442;225;25173;-79
2021/01/20 09:05:42;;;;;;;4.90;2.52;;;;;;;5.22;75.93;99453.13;630342;225;32868;-79
2021/01/20 09:08:10;;;;;;;3.37;2.07;;;;;;;4.99;77.13;99458.10;640986;223;23737;-79
2021/01/20 09:10:38;;;;;;;5.10;2.70;;;;;;;5.16;77.21;99456.20;639249;224;24849;-80
2021/01/20 09:13:06;;;;;;;3.80;2.53;;;;;;;5.26;76.44;99448.05;624579;229;25295;-79
2021/01/20 09:15:34;;;;;;;3.63;2.20;;;;;;;5.39;75.93;99445.24;628099;228;24865;-79
2021/01/20 09:18:06;;;;;;;3.90;2.53;;;;;;;5.21;75.43;99429.59;637773;224;24871;-81
2021/01/20 09:20:31;;;;;;;3.50;2.47;;;;;;;5.02;76.59;99432.88;626022;229;24829;-80
2021/01/20 09:22:59;;;;;;;4.07;2.50;;;;;;;5.03;76.87;99438.38;640079;223;31140;-79
2021/01/20 09:25:27;;;;;;;4.35;2.75;;;;;;;5.33;76.52;99428.99;629769;224;32865;-81
2021/01/20 09:27:55;;;;;;;4.10;3.00;;;;;;;5.41;76.43;99418.03;618601;229;32832;-80
2021/01/20 09:30:23;;;;;;;3.13;2.70;;;;;;;5.24;76.43;99417.72;626974;228;23742;-80
2021/01/20 09:32:51;;;;;;;4.92;3.00;;;;;;;5.18;76.27;99410.97;634556;223;43586;-81
2021/01/20 09:35:19;;;;;;;3.67;2.90;;;;;;;5.29;77.05;99419.42;638018;224;25807;-80
2021/01/20 09:37:47;;;;;;;4.60;2.83;;;;;;;5.37;75.69;99417.49;634241;223;32704;-80
2021/01/20 09:40:15;;;;;;;3.00;2.33;;;;;;;5.36;76.52;99419.26;639331;224;23706;-80
2021/01/20 09:42:43;;;;;;;5.10;3.50;;;;;;;5.42;76.32;99415.32;638359;224;24836;-79
2021/01/20 09:45:13;;;;;;;5.33;3.57;;;;;;;5.46;77.11;99414.10;625377;229;24835;-79
2021/01/20 09:47:41;;;;;;;4.03;3.20;;;;;;;5.52;76.58;99411.48;626103;229;24823;-81
2021/01/20 09:50:10;;;;;;;5.73;3.43;;;;;;;5.55;76.30;99409.45;629610;228;25906;-82
2021/01/20 09:52:38;;;;;;;4.43;3.10;;;;;;;5.53;75.95;99405.38;626415;228;24855;-80
2021/01/20 09:55:07;;;;;;;3.57;2.47;;;;;;;5.59;75.88;99404.83;619716;230;24871;-80
2021/01/20 09:57:35;;;;;;;3.03;2.53;;;;;;;5.62;76.40;99407.14;623676;230;24880;-81
2021/01/20 10:00:03;;;;;;;4.60;2.60;;;;;;;5.78;75.49;99401.48;633953;224;32960;-81
2021/01/20 10:02:31;;;;;;;4.23;2.50;;;;;;;5.74;75.65;99393.17;639150;220;23790;-81
2021/01/20 10:04:59;;;;;;;4.17;2.70;;;;;;;5.84;75.23;99392.71;622227;229;24798;-81
2021/01/20 10:07:28;;;;;;;3.50;2.42;;;;;;;6.11;75.03;99389.97;633362;224;32682;-81
2021/01/20 10:09:55;;;;;;;4.50;2.23;;;;;;;6.14;74.43;99387.91;624341;226;23708;-80
2021/01/20 10:12:23;;;;;;;2.13;1.90;;;;;;;6.16;74.37;99378.26;638722;221;24956;-80
2021/01/20 10:14:51;;;;;;;4.40;2.33;;;;;;;6.19;73.58;99375.43;627732;229;25982;-80
2021/01/20 10:17:19;;;;;;;4.50;2.50;;;;;;;6.28;74.36;99369.89;638741;224;24821;-81
2021/01/20 10:19:47;;;;;;;4.40;2.73;;;;;;;6.38;74.07;99371.17;627297;229;24844;-80
2021/01/20 10:22:15;;;;;;;3.90;2.57;;;;;;;6.47;73.82;99368.55;624470;225;24857;-80
2021/01/20 10:24:43;;;;;;;3.13;2.50;;;;;;;6.63;74.19;99367.99;632493;225;24846;-81
2021/01/20 10:27:11;;;;;;;2.80;2.30;;;;;;;6.67;73.75;99356.41;636034;225;27992;-81
2021/01/20 10:29:41;;;;;;;2.87;2.03;;;;;;;7.06;73.17;99351.90;637264;222;24817;-81
2021/01/20 10:32:10;;;;;;;3.10;2.40;;;;;;;7.25;71.75;99337.23;623861;226;24902;-80
2021/01/20 10:34:38;;;;;;;3.77;2.73;;;;;;;7.37;72.21;99330.89;625847;229;26138;-81
2021/01/20 10:37:06;;;;;;;5.80;3.20;;;;;;;7.32;71.96;99330.05;627685;228;24813;-80
2021/01/20 10:39:33;;;;;;;3.63;2.73;;;;;;;7.29;71.84;99324.33;623952;229;24946;-80
2021/01/20 10:42:01;;;;;;;5.47;3.15;;;;;;;7.61;71.37;99323.37;632094;222;32546;-79
2021/01/20 10:44:29;;;;;;;7.60;3.40;;;;;;;7.57;71.13;99318.62;629104;228;23804;-81
2021/01/20 10:46:57;;;;;;;5.47;3.33;;;;;;;7.79;71.29;99312.19;625473;226;24840;-77
2021/01/20 10:49:26;;;;;;;4.43;2.80;;;;;;;8.29;69.12;99302.01;620487;229;33105;-78
2021/01/20 10:51:54;;;;;;;3.15;2.55;;;;;;;8.53;67.82;99286.63;618210;227;32995;-78
2021/01/20 10:54:22;;;;;;;3.50;2.70;;;;;;;8.18;69.11;99285.45;638052;223;23650;-79
2021/01/20 10:56:50;;;;;;;3.50;2.70;;;;;;;8.08;68.72;99280.84;640357;223;24776;-79
2021/01/20 10:59:18;;;;;;;5.33;2.57;;;;;;;8.03;69.03;99273.06;640317;224;24827;-78
2021/01/20 11:01:46;;;;;;;3.30;2.43;;;;;;;8.29;69.92;99276.09;639802;220;24808;-78
2021/01/20 11:04:16;;;;;;;7.07;4.10;;;;;;;8.08;71.38;99277.77;639721;224;24820;-78
2021/01/20 11:06:42;;;;;;;6.47;4.80;;;;;;;7.84;72.01;99279.70;624627;228;24807;-78
2021/01/20 11:09:10;;;;;;;8.43;5.60;;;;;;;7.39;75.30;99288.88;625044;229;27951;-81
2021/01/20 11:11:38;;;;;;;5.90;4.63;;;;;;;7.21;77.28;99297.11;628671;225;24842;-81
2021/01/20 11:14:06;;;;;;;6.70;4.53;;;;;;;7.15;78.24;99310.13;624309;229;24948;-80
2021/01/20 11:16:34;;;;;;;7.20;4.60;;;;;;;7.21;77.71;99304.39;636525;225;24755;-81
2021/01/20 11:19:02;;;;;;;8.00;4.90;;;;;;;7.16;79.20;99310.45;640127;224;28070;-80
2021/01/20 11:21:31;;;;;;;5.87;4.00;;;;;;;7.23;79.42;99310.70;625392;225;24789;-80
2021/01/20 11:23:59;;;;;;;4.77;3.60;;;;;;;7.21;78.77;99302.28;642535;223;24822;-84
2021/01/20 11:26:28;;;;;;;5.40;3.53;;;;;;;7.24;79.86;99304.56;641226;222;24817;-80
2021/01/20 11:28:56;;;;;;;5.70;3.72;;;;;;;7.41;79.79;99297.30;635147;223;43613;-80
2021/01/20 11:31:24;;;;;;;4.67;2.77;;;;;;;7.22;79.02;99289.69;641288;223;23665;-81
2021/01/20 11:33:54;;;;;;;5.43;3.27;;;;;;;7.13;80.31;99288.77;640349;224;24812;-81
2021/01/20 11:36:21;;;;;;;4.63;3.80;;;;;;;7.05;81.31;99291.30;628149;228;24893;-80
2021/01/20 11:38:49;;;;;;;7.63;3.20;;;;;;;7.18;80.76;99288.33;640543;223;24856;-80
2021/01/20 11:41:17;;;;;;;7.37;3.70;;;;;;;7.38;80.23;99282.08;633500;220;32671;-81
2021/01/20 11:43:47;;;;;;;5.35;3.35;;;;;;;7.52;79.52;99276.38;633187;224;32713;-82
2021/01/20 11:46:13;;;;;;;5.07;3.60;;;;;;;7.59;80.00;99277.40;640466;223;23681;-81
2021/01/20 11:48:42;;;;;;;4.87;3.60;;;;;;;7.54;78.63;99264.11;641596;223;25862;-80
2021/01/20 11:51:09;;;;;;;6.20;3.47;;;;;;;7.45;79.32;99264.50;640153;220;24799;-79
2021/01/20 11:53:37;;;;;;;4.53;3.10;;;;;;;7.55;79.46;99264.91;640683;224;29106;-81
2021/01/20 11:56:06;;;;;;;4.43;3.30;;;;;;;7.69;80.42;99263.09;633442;224;28071;-81
2021/01/20 11:58:33;;;;;;;6.10;3.60;;;;;;;7.99;79.91;99263.95;638874;224;27358;-80
2021/01/20 12:01:01;;;;;;;6.80;3.77;;;;;;;8.05;79.07;99247.02;639762;221;24896;-80
2021/01/20 12:03:29;;;;;;;9.70;4.70;;;;;;;8.04;76.15;99222.09;625391;229;24777;-81